createdAt,value
2019-02-19T00:01:57.810Z,75.39
2019-02-19T00:04:27.910Z,75.38
2019-02-19T00:06:57.916Z,75.33
2019-02-19T00:09:27.994Z,75.23
2019-02-19T00:11:58.018Z,75.28
2019-02-19T00:14:28.002Z,75.14
2019-02-19T00:16:58.066Z,75.11
2019-02-19T00:19:28.052Z,75.11
2019-02-19T00:21:58.057Z,75.20
2019-02-19T00:24:28.048Z,75.15
2019-02-19T00:26:58.048Z,75.21
2019-02-19T00:29:28.012Z,74.94
2019-02-19T00:31:58.033Z,75.08
2019-02-19T00:34:28.029Z,75.17
2019-02-19T00:36:58.020Z,75.12
2019-02-19T00:39:28.024Z,74.98
2019-02-19T00:41:57.990Z,75.23
2019-02-19T00:44:27.996Z,75.05
2019-02-19T00:46:57.974Z,75.28
2019-02-19T00:49:27.968Z,75.29
2019-02-19T00:51:57.986Z,75.27
2019-02-19T00:54:28.066Z,75.40
2019-02-19T00:56:58.038Z,75.26
2019-02-19T00:59:28.048Z,75.41
2019-02-19T01:01:58.036Z,75.59
2019-02-19T01:04:28.028Z,75.32
2019-02-19T01:06:58.192Z,75.60
2019-02-19T01:09:28.882Z,75.94
2019-02-19T01:11:58.942Z,75.92
2019-02-19T01:14:29.045Z,76.32
2019-02-19T01:16:59.034Z,76.19
2019-02-19T01:19:29.218Z,76.36
2019-02-19T01:21:59.278Z,76.54
2019-02-19T01:24:29.294Z,76.44
2019-02-19T01:26:59.381Z,76.66
2019-02-19T01:29:29.408Z,76.59
2019-02-19T01:31:59.484Z,76.50
2019-02-19T01:34:29.527Z,76.43
2019-02-19T01:37:00.434Z,76.48
2019-02-19T01:39:30.514Z,76.29
2019-02-19T01:42:00.577Z,76.18
2019-02-19T01:44:30.644Z,76.05
2019-02-19T01:47:00.728Z,75.85
2019-02-19T01:49:30.772Z,75.84
2019-02-19T01:52:00.838Z,75.90
2019-02-19T01:54:30.876Z,75.90
2019-02-19T01:57:01.248Z,75.89
2019-02-19T01:59:31.487Z,75.96
2019-02-19T02:02:01.554Z,75.77
2019-02-19T02:04:31.604Z,75.73
2019-02-19T02:07:01.685Z,75.42
2019-02-19T02:09:33.025Z,75.26
2019-02-19T02:12:03.293Z,75.29
2019-02-19T02:14:33.357Z,75.03
2019-02-19T02:17:03.437Z,74.77
2019-02-19T02:19:33.405Z,74.62
2019-02-19T02:22:03.419Z,74.57
2019-02-19T02:24:33.400Z,74.76
2019-02-19T02:27:03.429Z,74.29
2019-02-19T02:29:33.577Z,74.26
2019-02-19T02:32:03.570Z,74.46
2019-02-19T02:34:33.539Z,74.78
2019-02-19T02:37:03.619Z,74.57
2019-02-19T02:39:33.591Z,74.68
2019-02-19T02:42:03.681Z,74.72
2019-02-19T02:44:33.646Z,74.52
2019-02-19T02:47:03.748Z,74.50
2019-02-19T02:49:33.779Z,74.83
2019-02-19T02:52:03.808Z,74.98
2019-02-19T02:54:34.049Z,74.73
2019-02-19T02:57:04.069Z,74.65
2019-02-19T02:59:34.095Z,74.45
2019-02-19T03:02:04.133Z,74.49
2019-02-19T03:04:34.121Z,74.71
2019-02-19T03:07:23.155Z,74.71
2019-02-19T03:09:53.209Z,74.73
2019-02-19T03:12:23.261Z,74.96
2019-02-19T03:14:53.332Z,74.77
2019-02-19T03:17:23.357Z,74.61
2019-02-19T03:19:53.359Z,75.25
2019-02-19T03:22:23.402Z,75.00
2019-02-19T03:24:53.495Z,74.96
2019-02-19T03:27:23.546Z,74.84
2019-02-19T03:29:53.603Z,74.92
2019-02-19T03:32:23.647Z,74.94
2019-02-19T03:34:53.756Z,75.11
2019-02-19T03:37:23.779Z,75.12
2019-02-19T03:39:53.849Z,75.04
2019-02-19T03:42:24.186Z,75.09
2019-02-19T03:44:54.225Z,75.15
2019-02-19T03:47:24.263Z,75.48
2019-02-19T03:49:54.332Z,75.19
2019-02-19T03:52:24.334Z,75.39
2019-02-19T03:54:54.427Z,75.58
2019-02-19T03:57:24.393Z,75.78
2019-02-19T03:59:54.859Z,75.98
2019-02-19T04:02:24.907Z,76.12
2019-02-19T04:04:54.962Z,75.94
2019-02-19T04:07:25.046Z,76.40
2019-02-19T04:09:55.085Z,76.43
2019-02-19T04:12:25.169Z,76.68
2019-02-19T04:14:55.213Z,76.98
2019-02-19T04:17:25.286Z,76.92
2019-02-19T04:19:55.285Z,77.01
2019-02-19T04:22:25.367Z,77.34
2019-02-19T04:24:55.464Z,77.56
2019-02-19T04:27:25.513Z,77.57
2019-02-19T04:29:55.506Z,77.97
2019-02-19T04:32:25.599Z,78.18
2019-02-19T04:34:55.643Z,78.38
2019-02-19T04:37:25.634Z,78.37
2019-02-19T04:39:55.619Z,78.69
2019-02-19T04:42:25.649Z,79.10
2019-02-19T04:44:55.631Z,79.17
2019-02-19T04:47:25.670Z,79.36
2019-02-19T04:49:55.662Z,79.13
2019-02-19T04:52:25.687Z,79.87
2019-02-19T04:54:55.682Z,79.66
2019-02-19T04:57:25.670Z,80.23
2019-02-19T04:59:55.676Z,80.24
2019-02-19T05:02:25.652Z,80.54
2019-02-19T05:04:55.668Z,80.16
2019-02-19T05:07:25.652Z,80.86
2019-02-19T05:09:55.658Z,81.00
2019-02-19T05:12:25.651Z,80.87
2019-02-19T05:14:55.633Z,80.98
2019-02-19T05:17:25.606Z,81.37
2019-02-19T05:19:55.613Z,81.45
2019-02-19T05:22:25.607Z,81.64
2019-02-19T05:24:55.606Z,82.16
2019-02-19T05:27:25.604Z,82.65
2019-02-19T05:29:55.629Z,83.02
2019-02-19T05:32:25.611Z,83.15
2019-02-19T05:34:55.608Z,84.40
2019-02-19T05:37:25.588Z,84.97
2019-02-19T05:39:55.592Z,85.07
2019-02-19T05:42:25.591Z,85.84
2019-02-19T05:44:55.608Z,85.94
2019-02-19T05:47:25.568Z,86.82
2019-02-19T05:49:55.579Z,87.27
2019-02-19T05:52:25.592Z,88.02
2019-02-19T05:54:55.625Z,88.17
2019-02-19T05:57:26.197Z,88.55
2019-02-19T05:59:56.209Z,89.21
2019-02-19T06:02:26.220Z,89.23
2019-02-19T06:04:56.252Z,90.22
2019-02-19T06:07:26.288Z,90.50
2019-02-19T06:09:56.279Z,90.58
2019-02-19T06:12:26.296Z,91.38
2019-02-19T06:14:56.318Z,90.86
2019-02-19T06:17:26.322Z,91.48
2019-02-19T06:19:56.346Z,90.80
2019-02-19T06:22:26.390Z,91.96
2019-02-19T06:24:56.374Z,92.02
2019-02-19T06:27:26.385Z,91.93
2019-02-19T06:29:56.393Z,92.09
2019-02-19T06:32:26.421Z,92.43
2019-02-19T06:34:56.446Z,91.73
2019-02-19T06:37:26.467Z,92.08
2019-02-19T06:39:56.501Z,92.39
2019-02-19T06:42:26.560Z,92.56
2019-02-19T06:44:56.590Z,92.48
2019-02-19T06:47:26.587Z,92.51
2019-02-19T06:49:56.604Z,92.35
2019-02-19T06:52:26.642Z,92.31
2019-02-19T06:54:56.642Z,92.15
2019-02-19T06:57:26.698Z,92.69
2019-02-19T06:59:56.702Z,91.97
2019-02-19T07:02:48.492Z,92.18
2019-02-19T07:05:23.433Z,93.33
2019-02-19T07:07:55.064Z,93.74
2019-02-19T07:10:30.428Z,93.60
2019-02-19T07:13:07.616Z,93.91
2019-02-19T07:15:39.315Z,93.71
2019-02-19T07:18:09.348Z,93.76
2019-02-19T07:20:39.366Z,93.86
2019-02-19T07:23:09.400Z,93.96
2019-02-19T07:25:39.460Z,93.82
2019-02-19T07:28:09.566Z,94.18
2019-02-19T07:30:39.571Z,94.35
2019-02-19T07:33:09.629Z,94.52
2019-02-19T07:35:39.650Z,94.21
2019-02-19T07:38:09.734Z,94.24
2019-02-19T07:40:39.797Z,94.20
2019-02-19T07:43:09.809Z,94.34
2019-02-19T07:45:39.823Z,94.34
2019-02-19T07:48:09.851Z,94.55
2019-02-19T07:50:39.893Z,94.66
2019-02-19T07:53:09.909Z,94.71
2019-02-19T07:55:39.958Z,93.80
2019-02-19T07:58:09.952Z,94.23
2019-02-19T08:00:39.991Z,94.52
2019-02-19T08:03:10.958Z,94.33
2019-02-19T08:05:40.995Z,94.24
2019-02-19T08:08:11.001Z,94.03
2019-02-19T08:10:41.057Z,93.98
2019-02-19T08:13:11.096Z,94.18
2019-02-19T08:15:41.151Z,93.94
2019-02-19T08:18:11.191Z,93.79
2019-02-19T08:20:41.384Z,93.66
2019-02-19T08:23:11.563Z,93.75
2019-02-19T08:25:41.580Z,93.37
2019-02-19T08:28:11.577Z,93.28
2019-02-19T08:30:41.697Z,93.21
2019-02-19T08:33:11.776Z,92.85
2019-02-19T08:35:41.747Z,92.42
2019-02-19T08:38:11.763Z,92.45
2019-02-19T08:40:41.799Z,92.39
2019-02-19T08:43:11.837Z,92.69
2019-02-19T08:45:41.845Z,92.23
2019-02-19T08:48:11.902Z,91.90
2019-02-19T08:50:43.740Z,91.70
2019-02-19T08:53:13.798Z,91.66
2019-02-19T08:55:43.803Z,91.36
2019-02-19T08:58:13.855Z,91.31
2019-02-19T09:00:43.896Z,91.37
2019-02-19T09:03:13.937Z,91.21
2019-02-19T09:05:43.940Z,90.84
2019-02-19T09:08:13.981Z,91.03
2019-02-19T09:10:44.011Z,91.06
2019-02-19T09:13:14.009Z,90.89
2019-02-19T09:15:44.105Z,90.64
2019-02-19T09:18:14.135Z,90.31
2019-02-19T09:20:44.227Z,90.24
2019-02-19T09:23:14.267Z,90.05
2019-02-19T09:25:44.388Z,90.08
2019-02-19T09:28:14.419Z,89.77
2019-02-19T09:30:44.586Z,89.68
2019-02-19T09:33:14.682Z,89.33
2019-02-19T09:35:44.763Z,89.50
2019-02-19T09:38:14.833Z,89.68
2019-02-19T09:40:44.840Z,89.46
2019-02-19T09:43:14.989Z,89.33
2019-02-19T09:45:44.990Z,89.27
2019-02-19T09:48:15.023Z,89.09
2019-02-19T09:50:45.023Z,89.06
2019-02-19T09:53:15.121Z,88.80
2019-02-19T09:55:45.108Z,88.82
2019-02-19T09:58:15.153Z,88.24
2019-02-19T10:00:45.168Z,88.29
2019-02-19T10:03:15.570Z,87.73
2019-02-19T10:05:45.625Z,87.58
2019-02-19T10:08:15.662Z,87.40
2019-02-19T10:10:45.703Z,87.30
2019-02-19T10:13:15.812Z,86.87
2019-02-19T10:15:48.346Z,86.19
2019-02-19T10:18:18.368Z,86.30
2019-02-19T10:20:48.394Z,85.86
2019-02-19T10:23:18.437Z,85.37
2019-02-19T10:25:48.475Z,85.62
2019-02-19T10:28:18.664Z,84.74
2019-02-19T10:30:48.679Z,84.94
2019-02-19T10:33:18.793Z,84.52
2019-02-19T10:35:48.830Z,84.29
2019-02-19T10:38:18.832Z,84.44
2019-02-19T10:40:50.981Z,84.02
2019-02-19T10:43:21.026Z,84.23
2019-02-19T10:45:51.196Z,84.32
2019-02-19T10:48:21.392Z,83.71
2019-02-19T10:50:51.498Z,83.19
2019-02-19T10:53:22.844Z,83.42
2019-02-19T10:55:53.979Z,82.74
2019-02-19T10:58:27.823Z,82.77
2019-02-19T11:01:02.300Z,82.76
2019-02-19T11:03:32.417Z,82.36
2019-02-19T11:06:21.907Z,81.90
2019-02-19T11:08:53.881Z,81.91
2019-02-19T11:11:26.269Z,81.79
2019-02-19T11:14:00.274Z,81.38
2019-02-19T11:16:31.759Z,80.76
2019-02-19T11:19:01.770Z,80.81
2019-02-19T11:21:31.884Z,80.64
2019-02-19T11:24:01.900Z,80.98
2019-02-19T11:26:31.958Z,81.31
2019-02-19T11:29:02.007Z,80.59
2019-02-19T11:31:32.021Z,80.62
2019-02-19T11:34:02.060Z,80.31
2019-02-19T11:36:32.084Z,81.25
2019-02-19T11:39:02.127Z,80.75
2019-02-19T11:41:32.171Z,80.27
2019-02-19T11:44:02.202Z,80.71
2019-02-19T11:46:32.230Z,80.68
2019-02-19T11:49:02.294Z,80.43
2019-02-19T11:51:32.360Z,79.67
2019-02-19T11:54:02.426Z,79.03
2019-02-19T11:56:32.476Z,78.46
2019-02-19T11:59:02.507Z,79.04
2019-02-19T12:01:32.526Z,78.52
2019-02-19T12:04:02.902Z,78.78
2019-02-19T12:06:32.923Z,78.81
2019-02-19T12:09:02.958Z,78.23
2019-02-19T12:11:32.981Z,77.92
2019-02-19T12:14:03.218Z,78.62
2019-02-19T12:16:33.294Z,78.86
2019-02-19T12:19:03.335Z,78.26
2019-02-19T12:21:33.332Z,78.15
2019-02-19T12:24:03.401Z,77.27
2019-02-19T12:26:33.601Z,77.11
2019-02-19T12:29:05.404Z,76.90
2019-02-19T12:31:35.452Z,77.01
2019-02-19T12:34:05.465Z,76.64
2019-02-19T12:36:35.557Z,76.62
2019-02-19T12:39:05.806Z,76.84
2019-02-19T12:41:35.868Z,76.96
2019-02-19T12:44:05.926Z,76.45
2019-02-19T12:46:36.049Z,76.83
2019-02-19T12:49:06.095Z,76.98
2019-02-19T12:51:36.186Z,77.49
2019-02-19T12:54:06.212Z,77.30
2019-02-19T12:56:36.317Z,77.04
2019-02-19T12:59:06.336Z,77.13
2019-02-19T13:01:36.389Z,77.00
2019-02-19T13:04:06.456Z,77.47
2019-02-19T13:06:36.619Z,77.92
2019-02-19T13:09:10.940Z,78.12
2019-02-19T13:11:40.986Z,78.21
2019-02-19T13:14:11.041Z,78.07
2019-02-19T13:16:41.072Z,78.17
2019-02-19T13:19:11.156Z,78.16
2019-02-19T13:21:41.236Z,78.00
2019-02-19T13:24:11.257Z,77.64
2019-02-19T13:26:41.576Z,77.40
2019-02-19T13:29:11.598Z,77.35
2019-02-19T13:31:41.633Z,78.07
2019-02-19T13:34:11.689Z,77.82
2019-02-19T13:36:41.851Z,77.43
2019-02-19T13:39:12.121Z,77.52
2019-02-19T13:41:43.460Z,77.00
2019-02-19T13:44:13.641Z,77.02
2019-02-19T13:46:43.876Z,76.68
2019-02-19T13:49:14.139Z,76.66
2019-02-19T13:51:44.167Z,76.79
2019-02-19T13:54:27.908Z,76.77
2019-02-19T13:56:58.074Z,76.83
2019-02-19T13:59:28.217Z,76.71
2019-02-19T14:01:58.322Z,76.32
2019-02-19T14:04:28.428Z,76.73
2019-02-19T14:06:58.445Z,76.32
2019-02-19T14:09:30.365Z,76.11
2019-02-19T14:12:00.337Z,76.35
2019-02-19T14:14:52.999Z,76.53
2019-02-19T14:17:23.903Z,76.67
2019-02-19T14:20:18.650Z,77.00
2019-02-19T14:22:57.579Z,77.12
2019-02-19T14:25:43.495Z,77.79
2019-02-19T14:28:38.506Z,78.11
2019-02-19T14:31:36.595Z,78.09
2019-02-19T14:34:24.368Z,78.42
2019-02-19T14:37:12.941Z,78.76
2019-02-19T14:40:11.229Z,78.28
2019-02-19T14:43:12.477Z,77.88
2019-02-19T14:46:00.565Z,77.62
2019-02-19T14:48:53.718Z,78.03
2019-02-19T14:51:48.923Z,78.28
2019-02-19T14:54:37.183Z,78.01
2019-02-19T14:57:32.377Z,78.70
2019-02-19T15:00:19.233Z,78.55
2019-02-19T15:03:17.270Z,78.33
2019-02-19T15:06:00.940Z,78.35
2019-02-19T15:08:59.021Z,78.33
2019-02-19T15:11:44.687Z,78.17
2019-02-19T15:14:39.720Z,78.55
2019-02-19T15:17:28.350Z,78.75
2019-02-19T15:20:24.653Z,78.69
2019-02-19T15:23:23.721Z,80.45
2019-02-19T15:26:21.673Z,81.04
2019-02-19T15:29:09.407Z,82.86
2019-02-19T15:31:54.627Z,84.63
2019-02-19T15:34:42.606Z,89.01
2019-02-19T15:37:30.211Z,89.40
2019-02-19T15:40:22.823Z,90.29
2019-02-19T15:43:17.653Z,91.53
2019-02-19T15:46:08.672Z,92.22
2019-02-19T15:48:58.286Z,92.48
2019-02-19T15:51:53.226Z,92.23
2019-02-19T15:54:42.195Z,92.19
2019-02-19T15:57:29.815Z,92.50
2019-02-19T16:00:17.682Z,92.60
2019-02-19T16:02:53.254Z,92.56
2019-02-19T16:05:34.965Z,92.78
2019-02-19T16:08:26.775Z,93.40
2019-02-19T16:11:07.803Z,93.93
2019-02-19T16:13:56.812Z,93.72
2019-02-19T16:16:44.731Z,94.45
2019-02-19T16:19:37.215Z,94.10
2019-02-19T16:22:38.374Z,94.08
2019-02-19T16:25:20.778Z,94.35
2019-02-19T16:28:08.845Z,94.21
2019-02-19T16:31:07.057Z,94.34
2019-02-19T16:33:50.546Z,94.04
2019-02-19T16:36:29.679Z,94.42
2019-02-19T16:39:20.587Z,94.72
2019-02-19T16:42:09.561Z,95.47
2019-02-19T16:45:01.408Z,95.17
2019-02-19T16:47:44.218Z,95.34
2019-02-19T16:50:39.102Z,95.03
2019-02-19T16:53:15.047Z,94.96
2019-02-19T16:56:16.394Z,94.79
2019-02-19T16:59:15.320Z,94.74
2019-02-19T17:02:01.213Z,94.89
2019-02-19T17:04:48.115Z,94.90
2019-02-19T17:07:39.959Z,95.01
2019-02-19T17:10:18.406Z,94.81
2019-02-19T17:13:05.567Z,94.56
2019-02-19T17:15:53.254Z,94.77
2019-02-19T17:18:54.390Z,94.39
2019-02-19T17:21:40.750Z,94.43
2019-02-19T17:24:29.771Z,93.91
2019-02-19T17:27:30.762Z,94.10
2019-02-19T17:30:08.442Z,93.61
2019-02-19T17:32:57.463Z,93.78
2019-02-19T17:35:38.394Z,94.17
2019-02-19T17:38:39.291Z,94.04
2019-02-19T17:41:16.748Z,93.44
2019-02-19T17:44:04.908Z,93.86
2019-02-19T17:46:59.865Z,94.16
2019-02-19T17:49:51.229Z,94.02
2019-02-19T17:52:41.141Z,93.82
2019-02-19T17:55:30.751Z,94.27
2019-02-19T17:58:15.968Z,94.26
2019-02-19T18:00:52.308Z,94.26
2019-02-19T18:03:30.235Z,94.35
2019-02-19T18:06:15.370Z,94.03
2019-02-19T18:08:56.432Z,93.66
2019-02-19T18:11:35.811Z,94.00
2019-02-19T18:14:23.850Z,93.95
2019-02-19T18:17:16.119Z,93.92
2019-02-19T18:19:46.149Z,94.00
2019-02-19T18:22:16.969Z,93.80
2019-02-19T18:24:47.367Z,93.36
2019-02-19T18:27:17.429Z,93.59
2019-02-19T18:29:48.442Z,93.44
2019-02-19T18:32:18.565Z,93.59
2019-02-19T18:34:49.208Z,93.55
2019-02-19T18:37:19.232Z,93.49
2019-02-19T18:39:50.909Z,92.75
2019-02-19T18:42:21.189Z,92.81
2019-02-19T18:44:56.807Z,92.81
2019-02-19T18:47:26.542Z,92.98
2019-02-19T18:49:57.040Z,93.03
2019-02-19T18:52:27.119Z,92.73
2019-02-19T18:54:57.207Z,92.78
2019-02-19T18:57:27.297Z,92.85
2019-02-19T18:59:57.406Z,92.72
2019-02-19T19:02:27.501Z,92.59
2019-02-19T19:04:57.566Z,92.63
2019-02-19T19:07:27.644Z,92.46
2019-02-19T19:09:57.689Z,92.47
2019-02-19T19:12:27.870Z,92.33
2019-02-19T19:14:57.915Z,92.80
2019-02-19T19:17:27.996Z,93.11
2019-02-19T19:19:58.044Z,92.93
2019-02-19T19:22:28.065Z,92.61
2019-02-19T19:24:58.091Z,92.32
2019-02-19T19:27:28.178Z,92.67
2019-02-19T19:29:58.231Z,92.85
2019-02-19T19:32:28.289Z,92.61
2019-02-19T19:34:58.458Z,92.63
2019-02-19T19:37:28.522Z,92.78
2019-02-19T19:39:58.570Z,92.92
2019-02-19T19:42:28.652Z,92.98
2019-02-19T19:44:58.708Z,93.00
2019-02-19T19:47:28.785Z,92.88
2019-02-19T19:49:58.896Z,92.74
2019-02-19T19:52:29.135Z,92.95
2019-02-19T19:54:59.311Z,93.02
2019-02-19T19:57:32.481Z,92.58
2019-02-19T20:00:02.549Z,92.70
2019-02-19T20:02:32.629Z,92.39
2019-02-19T20:05:02.718Z,92.49
2019-02-19T20:07:32.856Z,92.81
2019-02-19T20:10:02.908Z,92.66
2019-02-19T20:12:32.985Z,92.42
2019-02-19T20:15:03.046Z,92.38
2019-02-19T20:17:33.136Z,92.31
2019-02-19T20:20:03.306Z,92.45
2019-02-19T20:22:33.382Z,92.78
2019-02-19T20:25:06.217Z,92.32
2019-02-19T20:27:36.239Z,92.50
2019-02-19T20:30:07.013Z,92.59
2019-02-19T20:32:37.077Z,92.59
2019-02-19T20:35:08.063Z,92.42
2019-02-19T20:37:38.503Z,92.35
2019-02-19T20:40:08.708Z,92.51
2019-02-19T20:42:38.797Z,92.62
2019-02-19T20:45:08.988Z,92.50
2019-02-19T20:47:39.085Z,92.55
2019-02-19T20:50:09.608Z,92.27
2019-02-19T20:52:39.812Z,92.16
2019-02-19T20:55:10.000Z,92.43
2019-02-19T20:57:40.003Z,92.66
2019-02-19T21:00:13.663Z,92.85
2019-02-19T21:02:43.735Z,92.94
2019-02-19T21:05:14.035Z,92.61
2019-02-19T21:07:44.150Z,92.74
2019-02-19T21:10:15.732Z,92.28
2019-02-19T21:12:45.736Z,92.36
2019-02-19T21:15:15.817Z,92.45
2019-02-19T21:17:45.867Z,92.50
2019-02-19T21:20:16.031Z,92.58
2019-02-19T21:22:46.085Z,92.14
2019-02-19T21:25:16.175Z,92.54
2019-02-19T21:27:46.228Z,92.33
2019-02-19T21:30:16.321Z,92.56
2019-02-19T21:32:46.361Z,92.56
2019-02-19T21:35:16.482Z,92.75
2019-02-19T21:37:46.666Z,93.04
2019-02-19T21:40:16.731Z,93.21
2019-02-19T21:42:46.808Z,92.84
2019-02-19T21:45:16.829Z,92.65
2019-02-19T21:47:46.887Z,93.24
2019-02-19T21:50:16.954Z,93.32
2019-02-19T21:52:47.105Z,93.21
2019-02-19T21:55:17.120Z,93.16
2019-02-19T21:57:47.182Z,92.92
2019-02-19T22:00:17.291Z,92.76
2019-02-19T22:02:47.368Z,92.74
2019-02-19T22:05:17.500Z,92.59
2019-02-19T22:07:47.583Z,92.77
2019-02-19T22:10:17.771Z,92.65
2019-02-19T22:12:47.859Z,92.42
2019-02-19T22:15:17.888Z,92.33
2019-02-19T22:17:47.940Z,92.66
2019-02-19T22:20:35.684Z,92.38
2019-02-19T22:23:06.151Z,92.29
2019-02-19T22:25:36.195Z,92.07
2019-02-19T22:28:06.232Z,92.37
2019-02-19T22:30:36.264Z,92.43
2019-02-19T22:33:06.389Z,92.21
2019-02-19T22:35:36.410Z,92.45
2019-02-19T22:38:06.453Z,92.50
2019-02-19T22:40:36.498Z,92.59
2019-02-19T22:43:06.523Z,92.34
2019-02-19T22:45:36.643Z,92.32
2019-02-19T22:48:06.880Z,92.60
2019-02-19T22:50:37.069Z,92.50
2019-02-19T22:53:26.170Z,92.77
2019-02-19T22:56:07.572Z,92.45
2019-02-19T22:58:37.666Z,91.81
2019-02-19T23:01:17.465Z,92.00
2019-02-19T23:03:47.546Z,91.91
2019-02-19T23:06:17.614Z,91.67
2019-02-19T23:08:47.698Z,91.73
2019-02-19T23:11:17.818Z,91.53
2019-02-19T23:13:47.848Z,91.36
2019-02-19T23:16:17.874Z,91.39
2019-02-19T23:18:47.976Z,91.45
2019-02-19T23:21:18.100Z,91.25
2019-02-19T23:23:48.216Z,91.43
2019-02-19T23:26:18.251Z,91.20
2019-02-19T23:28:48.349Z,91.07
2019-02-19T23:31:18.468Z,91.41
2019-02-19T23:33:48.557Z,91.40
2019-02-19T23:36:37.540Z,91.25
2019-02-19T23:39:07.809Z,91.30
2019-02-19T23:41:37.844Z,91.34
2019-02-19T23:44:07.885Z,91.26
2019-02-19T23:46:37.912Z,91.11
2019-02-19T23:49:07.956Z,91.20
2019-02-19T23:51:38.022Z,91.52
2019-02-19T23:54:08.074Z,91.49
2019-02-19T23:56:38.474Z,91.24
2019-02-19T23:59:08.526Z,91.18
